Golden Iris — 3FZK4 — position and weather

sailwx.info

Track history (hours):
 
Tides and Currents Weather Stations Pressure Air Temp Water Temp Dewpoint Dewpoint Depression Visibility Wind Speed Wind Dir Waves Ship Positions

Golden Iris

Last reported at 2016-May-27 11:30 UTC. Time now 2016-May-28 06:01 UTC.
Position N 32°55' E 034°53'.

Length 163 m; draft 6 m.

Type: Passenger vessel. MMSI: 371771000.

Date/timePositionNaut miles runAvg speedWind from/ knotsBaromVisibWave heightAir tempDewpointWater temp
2016-May-27 11:30N 32°55' E 034°53'8 8.1
2016-May-27 10:34N 32°51' E 035°00'2 1.9
2016-May-27 09:32N 32°49' E 035°00'0 0.0
2016-May-27 08:32N 32°49' E 035°00'0 0.0
2016-May-27 07:32N 32°49' E 035°00'0 0.0
2016-May-27 06:32N 32°49' E 035°00'0 0.0
2016-May-27 05:32N 32°49' E 035°00'0 0.0
2016-May-27 04:32N 32°49' E 035°00'0 0.0
2016-May-27 03:32N 32°49' E 035°00'4 3.6
2016-May-27 02:33N 32°52' E 034°58'1313.2
2016-May-27 01:32N 32°54' E 034°42'  
2016-May-23 19:31N 35°53' E 015°32'1414.6
2016-May-23 18:33N 35°54' E 015°15'1414.1
2016-May-23 17:33N 35°54' E 014°57'1414.1
2016-May-23 16:33N 35°55' E 014°40'7 0.7
2016-May-23 05:29N 35°54' E 014°31'9 9.6
2016-May-23 04:34N 36°01' E 014°38'10 9.9
2016-May-23 03:34N 36°08' E 014°46'1010.2
2016-May-23 02:33N 36°16' E 014°54'9 9.2
2016-May-23 01:34N 36°23' E 015°02'9 9.0
2016-May-23 00:33N 36°31' E 015°07'9 9.2
2016-May-22 23:33N 36°38' E 015°13'9 8.9
2016-May-22 22:33N 36°46' E 015°20'43 8.3
2016-May-22 17:22N 37°28' E 015°08'1 0.1
2016-May-22 06:32N 37°28' E 015°08'2713.4
2016-May-22 04:33N 37°51' E 015°25'1514.9
2016-May-22 03:33N 38°05' E 015°33'1514.8
2016-May-22 02:33N 38°18' E 015°40'1515.1
2016-May-22 01:34N 38°32' E 015°32'1515.0
2016-May-22 00:33N 38°45' E 015°23'1615.0
2016-May-21 23:29N 39°00' E 015°15'7414.9
2016-May-21 18:31N 40°05' E 014°29'1515.2
2016-May-21 17:33N 40°18' E 014°20'1515.1
2016-May-21 16:34N 40°31' E 014°11'1514.5
2016-May-21 15:33N 40°45' E 014°16'5 0.5
2016-May-21 06:10N 40°50' E 014°16'2 3.3
2016-May-21 05:33N 40°49' E 014°17'1413.5
2016-May-21 04:33N 40°40' E 014°04'1414.2
2016-May-21 03:33N 40°41' E 013°45'1514.7
2016-May-21 02:33N 40°50' E 013°30'137 3.8
2016-May-19 14:07N 38°33' E 013°23'814.3
2016-May-19 13:33N 38°25' E 013°25'1414.2
2016-May-19 12:33N 38°11' E 013°25'4 3.8
2016-May-19 11:23N 38°08' E 013°22'0 0.0
2016-May-19 10:26N 38°08' E 013°22'0 0.0
2016-May-19 09:29N 38°08' E 013°22'0 0.0
2016-May-19 08:29N 38°08' E 013°22'0 0.0
2016-May-19 07:32N 38°08' E 013°22'0 0.0
2016-May-19 06:32N 38°08' E 013°22'0 0.0
2016-May-19 05:32N 38°08' E 013°22'5 5.4
2016-May-19 04:33N 38°10' E 013°28'5814.2
2016-May-19 00:30N 38°16' E 014°41'1414.6
2016-May-18 23:33N 38°18' E 014°58'1514.5
2016-May-18 22:33N 38°19' E 015°17'1413.8
2016-May-18 21:33N 38°20' E 015°34'7 6.7
2016-May-18 20:33N 38°14' E 015°38'1211.6
2016-May-18 19:33N 38°03' E 015°36'10 9.9
2016-May-18 18:34N 37°54' E 015°42'1414.0
2016-May-18 17:33N 37°49' E 015°59'  
Track history (hours):
 
Tides and Currents Weather Stations Pressure Air Temp Water Temp Dewpoint Dewpoint Depression Visibility Wind Speed Wind Dir Waves Ship Positions

Golden Iris

Last reported at 2016-May-27 11:30 UTC. Time now 2016-May-28 06:01 UTC.
Position N 32°55' E 034°53'.

Length 163 m; draft 6 m.

Type: Passenger vessel. MMSI: 371771000.

Date/timePositionNaut miles runAvg speedWind from/ knotsBaromVisibWave heightAir tempDewpointWater temp
2016-May-27 11:30N 32°55' E 034°53'8 8.1
2016-May-27 10:34N 32°51' E 035°00'2 1.9
2016-May-27 09:32N 32°49' E 035°00'0 0.0
2016-May-27 08:32N 32°49' E 035°00'0 0.0
2016-May-27 07:32N 32°49' E 035°00'0 0.0
2016-May-27 06:32N 32°49' E 035°00'0 0.0
2016-May-27 05:32N 32°49' E 035°00'0 0.0
2016-May-27 04:32N 32°49' E 035°00'0 0.0
2016-May-27 03:32N 32°49' E 035°00'4 3.6
2016-May-27 02:33N 32°52' E 034°58'1313.2
2016-May-27 01:32N 32°54' E 034°42'  
2016-May-23 19:31N 35°53' E 015°32'1414.6
2016-May-23 18:33N 35°54' E 015°15'1414.1
2016-May-23 17:33N 35°54' E 014°57'1414.1
2016-May-23 16:33N 35°55' E 014°40'7 0.7
2016-May-23 05:29N 35°54' E 014°31'9 9.6
2016-May-23 04:34N 36°01' E 014°38'10 9.9
2016-May-23 03:34N 36°08' E 014°46'1010.2
2016-May-23 02:33N 36°16' E 014°54'9 9.2
2016-May-23 01:34N 36°23' E 015°02'9 9.0
2016-May-23 00:33N 36°31' E 015°07'9 9.2
2016-May-22 23:33N 36°38' E 015°13'9 8.9
2016-May-22 22:33N 36°46' E 015°20'43 8.3
2016-May-22 17:22N 37°28' E 015°08'1 0.1
2016-May-22 06:32N 37°28' E 015°08'2713.4
2016-May-22 04:33N 37°51' E 015°25'1514.9
2016-May-22 03:33N 38°05' E 015°33'1514.8
2016-May-22 02:33N 38°18' E 015°40'1515.1
2016-May-22 01:34N 38°32' E 015°32'1515.0
2016-May-22 00:33N 38°45' E 015°23'1615.0
2016-May-21 23:29N 39°00' E 015°15'7414.9
2016-May-21 18:31N 40°05' E 014°29'1515.2
2016-May-21 17:33N 40°18' E 014°20'1515.1
2016-May-21 16:34N 40°31' E 014°11'1514.5
2016-May-21 15:33N 40°45' E 014°16'5 0.5
2016-May-21 06:10N 40°50' E 014°16'2 3.3
2016-May-21 05:33N 40°49' E 014°17'1413.5
2016-May-21 04:33N 40°40' E 014°04'1414.2
2016-May-21 03:33N 40°41' E 013°45'1514.7
2016-May-21 02:33N 40°50' E 013°30'137 3.8
2016-May-19 14:07N 38°33' E 013°23'814.3
2016-May-19 13:33N 38°25' E 013°25'1414.2
2016-May-19 12:33N 38°11' E 013°25'4 3.8
2016-May-19 11:23N 38°08' E 013°22'0 0.0
2016-May-19 10:26N 38°08' E 013°22'0 0.0
2016-May-19 09:29N 38°08' E 013°22'0 0.0
2016-May-19 08:29N 38°08' E 013°22'0 0.0
2016-May-19 07:32N 38°08' E 013°22'0 0.0
2016-May-19 06:32N 38°08' E 013°22'0 0.0
2016-May-19 05:32N 38°08' E 013°22'5 5.4
2016-May-19 04:33N 38°10' E 013°28'5814.2
2016-May-19 00:30N 38°16' E 014°41'1414.6
2016-May-18 23:33N 38°18' E 014°58'1514.5
2016-May-18 22:33N 38°19' E 015°17'1413.8
2016-May-18 21:33N 38°20' E 015°34'7 6.7
2016-May-18 20:33N 38°14' E 015°38'1211.6
2016-May-18 19:33N 38°03' E 015°36'10 9.9
2016-May-18 18:34N 37°54' E 015°42'1414.0
2016-May-18 17:33N 37°49' E 015°59'  

Dump ship's entire track history